Latest Coastal Weather Observations for Brisbane Airport

IDQ60701

Issued at 4:21 am EST Monday 3 August 2015 (issued every 10 minutes, with the page automatically refreshed every 10 minutes)

About coastal observations | Map of coastal stations | Coastal observations for QLD | Marine services | Other Formats
Station Details ID: 040842 Name: BRISBANE AERO Lat: -27.39 Lon: 153.13 Height: 4.51 m
Data from the previous 72 hours. | See also: Recent months at Brisbane Airport
Date/Time
EST
Temp

°C
Wind Pressure Rain
since 9am
mm
Weather Cloud Vis
km
Sea
Height
m
Swell
Dir
 
Speed
knots
Gust
knots
hPa Trend Height
m
Period
s
Dir
03/04:00am 13.3 NNW 1 4 1018.0 - 0.0 - - 10 - - - -
03/03:30am 13.7 NNW 7 9 1018.0 - 0.0 - - 10 - - - -
03/03:00am 13.8 NNW 9 11 1018.0 F 0.0 Fine Clear 30 - - - -
03/02:30am 13.9 N 7 8 1018.2 - 0.0 - - 10 - - - -
03/02:00am 13.5 N 8 9 1018.4 - 0.0 - - 10 - - - -
03/01:30am 13.9 NNW 7 8 1018.7 - 0.0 - - 10 - - - -
03/01:00am 14.0 N 8 9 1019.1 - 0.0 - - 10 - - - -
03/12:30am 14.5 N 8 10 1019.4 - 0.0 - - 10 - - - -
03/12:00am 15.0 N 7 9 1019.5 F 0.0 Fine Clear 30 - - - -
 
Date/Time
EST
Temp

°C
Wind Pressure Rain
since 9am
mm
Weather Cloud Vis
km
Sea
Height
m
Swell
Dir
 
Speed
knots
Gust
knots
hPa Trend Height
m
Period
s
Dir
02/11:30pm 16.1 N 8 9 1019.7 - 0.0 - - 10 - - - -
02/11:00pm 16.1 N 7 8 1019.8 - 0.0 - - 10 - - - -
02/10:30pm 16.2 N 8 9 1019.8 - 0.0 - - 10 - - - -
02/10:00pm 16.6 N 9 11 1019.9 - 0.0 - - 10 - - - -
02/09:30pm 17.5 NNW 7 16 1020.1 - 0.0 - - 10 - - - -
02/09:00pm 17.2 N 9 12 1019.9 F 0.0 Fine Clear 30 - - - -
02/08:30pm 17.5 N 10 13 1019.7 - 0.0 - - 10 - - - -
02/08:00pm 17.9 N 9 11 1019.7 - 0.0 - - 10 - - - -
02/07:30pm 17.8 N 9 12 1019.8 - 0.0 - - 10 - - - -
02/07:00pm 18.1 N 9 14 1019.6 - 0.0 - - 10 - - - -
02/06:30pm 18.0 N 11 15 1019.3 - 0.0 - - 10 - - - -
02/06:00pm 18.4 N 13 16 1019.1 F 0.0 Fine Clear 30 - - - -
02/05:30pm 18.7 N 13 18 1018.8 - 0.0 - - 10 - - - -
02/05:00pm 19.4 NNE 14 18 1018.7 - 0.0 - - 10 - - - -
02/04:30pm 20.1 NNE 15 19 1018.6 - 0.0 - - 10 - - - -
02/04:00pm 20.9 NNE 15 20 1018.6 - 0.0 - - 10 - - - -
02/03:30pm 21.4 NNE 16 21 1018.7 - 0.0 - - 10 - - - -
02/03:00pm 21.7 NNE 16 19 1018.9 F 0.0 Fine Mostly clear 30 - - - -
02/02:30pm 22.0 NNE 15 19 1019.1 - 0.0 - - 10 - - - -
02/02:00pm 21.8 NNE 14 17 1019.5 - 0.0 - - 10 - - - -
02/01:30pm 22.4 NNE 11 14 1019.9 - 0.0 - - 10 - - - -
02/01:00pm 22.1 NNE 10 13 1020.3 - 0.0 - - 10 - - - -
02/12:30pm 22.6 N 9 14 1020.8 - 0.0 - - 10 - - - -
02/12:00pm 21.7 N 10 13 1021.3 F 0.0 Fine Mostly clear 30 - - - -
02/11:30am 21.8 N 9 14 1021.9 - 0.0 - Mostly clear 10 - - - -
02/11:00am 20.9 N 7 14 1022.6 - 0.0 - Mostly clear 10 - - - -
02/10:30am 20.8 NW 8 10 1023.1 - 0.0 - Mostly clear 10 - - - -
02/10:00am 19.1 N 7 9 1023.3 - 0.0 - - 10 - - - -
02/09:30am 17.6 WNW 4 6 1023.3 - 0.0 - - 10 - - - -
02/09:00am 16.0 SSW 3 5 1023.4 F 0.0 Fine Clear 25 - - - -
02/08:30am 14.2 SSW 4 6 1023.3 - 0.0 - - 10 - - - -
02/08:00am 12.8 SSW 3 5 1023.2 - 0.0 - - 10 - - - -
02/07:30am 11.4 SW 3 5 1023.2 - 0.0 - - 10 - - - -
02/07:00am 9.7 CALM 0 0 1022.9 - 0.0 - - 10 - - - -
02/06:30am 8.8 WSW 3 4 1022.6 - 0.0 Shallow fog - 10 - - - -
02/06:00am 9.9 SW 3 4 1022.3 F 0.0 Shallow fog Clear 15 - - - -
02/05:30am 9.9 SSW 1 5 1022.1 - 0.0 - - 10 - - - -
02/05:00am 10.4 WSW 4 6 1022.0 - 0.0 - - 10 - - - -
02/04:30am 10.7 SSW 4 5 1021.7 - 0.0 - - 10 - - - -
02/04:00am 11.1 S 5 6 1021.9 - 0.0 - - 10 - - - -
02/03:30am 10.5 SSW 4 5 1021.8 - 0.0 - - 10 - - - -
02/03:00am 10.5 CALM 0 0 1021.9 F 0.0 Shallow fog Clear 9 - - - -
02/02:30am 10.9 CALM 0 0 1022.1 - 0.0 Shallow fog - 9 - - - -
02/02:00am 11.0 CALM 0 0 1022.1 - 0.0 Shallow fog - 9 - - - -
02/01:30am 11.8 W 4 5 1022.2 - 0.0 Shallow fog - 9 - - - -
02/01:00am 11.9 CALM 0 0 1022.4 - 0.0 Shallow fog - 9 - - - -
02/12:30am 12.7 CALM 0 0 1022.9 - 0.0 - - 10 - - - -
02/12:00am 13.3 CALM 0 0 1023.1 R 0.0 Fine Clear 30 - - - -
 
Date/Time
EST
Temp

°C
Wind Pressure Rain
since 9am
mm
Weather Cloud Vis
km
Sea
Height
m
Swell
Dir
 
Speed
knots
Gust
knots
hPa Trend Height
m
Period
s
Dir
01/11:30pm 13.0 NNW 3 5 1023.1 - 0.0 - - 10 - - - -
01/11:00pm 12.5 N 4 5 1023.1 - 0.0 - - 10 - - - -
01/10:30pm 13.7 WNW 2 4 1023.1 - 0.0 - - 10 - - - -
01/10:00pm 13.6 WNW 4 5 1023.1 - 0.0 - - 10 - - - -
01/09:30pm 14.1 NW 4 7 1022.9 - 0.0 - - 10 - - - -
01/09:00pm 13.9 NW 4 5 1022.8 S 0.0 Fine Clear 30 - - - -
01/08:30pm 14.8 CALM 0 0 1022.7 - 0.0 - - 10 - - - -
01/08:00pm 15.2 NNW 6 13 1022.5 - 0.0 - - 10 - - - -
01/07:30pm 15.1 N 5 6 1022.2 - 0.0 - - 10 - - - -
01/07:00pm 15.0 N 6 6 1022.0 - 0.0 - - 10 - - - -
01/06:30pm 15.4 N 6 7 1021.7 - 0.0 - - 10 - - - -
01/06:00pm 16.3 NNE 8 10 1021.5 F 0.0 Fine Clear 35 - - - -
01/05:30pm 17.1 NNE 9 11 1021.3 - 0.0 - - 10 - - - -
01/05:00pm 18.1 NNE 8 12 1021.0 - 0.0 - - 10 - - - -
01/04:30pm 19.1 NNE 9 13 1021.1 - 0.0 - - 10 - - - -
01/04:00pm 19.7 NNE 11 15 1021.0 - 0.0 - - 10 - - - -
01/03:30pm 20.2 NNE 11 15 1021.0 - 0.0 - - 10 - - - -
01/03:00pm 20.8 NE 10 13 1021.0 S 0.0 Fine Mostly clear 40 - - - -
01/02:30pm 21.1 NNE 10 14 1021.0 - 0.0 - - 10 - - - -
01/02:00pm 21.3 NNE 10 14 1021.1 - 0.0 - - 10 - - - -
01/01:30pm 21.0 NNE 9 11 1021.2 - 0.0 - - 10 - - - -
01/01:00pm 21.1 N 9 11 1021.8 - 0.0 - - 10 - - - -
01/12:30pm 20.7 N 8 10 1022.3 - 0.0 - - 10 - - - -
01/12:00pm 20.7 N 7 9 1022.9 R 0.0 Fine Mostly clear 40 - - - -
01/11:30am 20.7 N 7 9 1023.2 - 0.0 - Mostly clear 10 - - - -
01/11:00am 20.8 N 7 10 1023.6 - 0.0 - Mostly clear 10 - - - -
01/10:30am 19.8 NW 3 8 1024.0 - 0.0 - - 10 - - - -
01/10:00am 18.5 SW 5 6 1024.3 - 0.0 - - 10 - - - -
01/09:30am 16.7 SSW 6 7 1024.4 - 0.0 - - 10 - - - -
01/09:00am 15.1 SSW 9 11 1024.4 R 0.0 Fine Clear 35 - - - -
01/08:30am 13.6 SSW 8 10 1024.4 - 0.0 - - 10 - - - -
01/08:00am 12.1 SSW 6 8 1023.8 - 0.0 - - 10 - - - -
01/07:30am 10.5 SSW 6 7 1023.3 - 0.0 - - 10 - - - -
01/07:00am 9.1 SSW 7 8 1023.2 - 0.0 - - 10 - - - -
01/06:30am 8.8 SSW 7 8 1022.8 - 0.0 - - 10 - - - -
01/06:00am 9.7 SSW 7 9 1022.6 F 0.0 Fine Clear 25 - - - -
01/05:30am 9.5 SSW 7 8 1022.4 - 0.0 - - 10 - - - -
01/05:00am 9.4 SSW 7 8 1022.3 - 0.0 - - 10 - - - -
01/04:30am 9.3 SSW 5 7 1022.2 - 0.0 - - 10 - - - -
01/04:00am 9.8 SSW 5 6 1022.1 - 0.0 - - 10 - - - -
01/03:30am 10.7 SSW 6 8 1022.0 - 0.0 - - 10 - - - -
01/03:00am 10.6 SSW 7 8 1022.2 R 0.0 Haze Clear 15 - - - -
01/02:30am 10.9 SSW 6 6 1022.4 - 0.0 - Mostly clear 10 - - - -
01/02:00am 11.4 SSW 6 6 1022.5 - 0.0 - Mostly clear 10 - - - -
01/01:30am 10.3 SSW 5 6 1022.6 - 0.0 - - 10 - - - -
01/01:00am 10.5 S 3 5 1022.7 - 0.0 - - 10 - - - -
01/12:30am 11.6 SE 5 6 1022.7 - 0.0 - - 10 - - - -
01/12:00am 12.9 ESE 4 5 1022.7 R 0.0 Shallow fog Clear 10 - - - -
 
Date/Time
EST
Temp

°C
Wind Pressure Rain
since 9am
mm
Weather Cloud Vis
km
Sea
Height
m
Swell
Dir
 
Speed
knots
Gust
knots
hPa Trend Height
m
Period
s
Dir
31/11:30pm 12.3 CALM 0 0 1022.5 - 0.0 Shallow fog - 10 - - - -
31/11:00pm 12.0 CALM 0 0 1022.4 - 0.0 - - 10 - - - -
31/10:30pm 13.2 CALM 0 0 1022.5 - 0.0 - - 10 - - - -
31/10:00pm 13.4 NE 3 4 1022.5 - 0.0 - - 10 - - - -
31/09:30pm 14.4 N 4 6 1022.4 - 0.0 - - 10 - - - -
31/09:00pm 14.0 CALM 0 0 1022.3 R 0.0 Fine Clear 30 - - - -
31/08:30pm 14.4 NW 4 8 1022.1 - 0.0 - - 10 - - - -
31/08:00pm 14.9 WNW 3 5 1021.9 - 0.0 - - 10 - - - -
31/07:30pm 15.4 N 6 13 1021.4 - 0.0 - - 10 - - - -
31/07:00pm 14.8 N 6 10 1021.1 - 0.0 - - 10 - - - -
31/06:30pm 15.7 N 7 8 1020.8 - 0.0 - - 10 - - - -
31/06:00pm 16.2 NNE 7 9 1020.6 F 0.0 Fine Clear 30 - - - -
31/05:30pm 16.3 NNE 6 8 1020.5 - 0.0 - - 10 - - - -
31/05:00pm 17.7 NNE 8 10 1020.3 - 0.0 - - 10 - - - -
31/04:30pm 19.2 NNE 8 9 1020.3 - 0.0 - - 10 - - - -
31/04:00pm 20.6 NNE 8 10 1020.3 - 0.0 - - 10 - - - -
31/03:30pm 21.1 NE 7 10 1020.0 - 0.0 - - 10 - - - -
31/03:00pm 22.9 W 7 10 1020.2 F 0.0 Haze Clear 30 - - - -
31/02:30pm 22.8 W 5 8 1020.4 - 0.0 - - 10 - - - -
31/02:00pm 22.4 WSW 10 16 1020.6 - 0.0 - - 10 - - - -
31/01:30pm 22.3 SW 9 11 1020.8 - 0.0 - - 10 - - - -
31/01:00pm 22.3 W 10 14 1021.2 - 0.0 - - 10 - - - -
31/12:30pm 21.9 WSW 11 17 1021.6 - 0.0 - - 10 - - - -
31/12:00pm 21.9 WSW 12 19 1022.3 F 0.0 Fine Mostly clear 30 - - - -
31/11:30am 22.0 W 11 17 1022.9 - 0.0 - - 10 - - - -
31/11:00am 21.1 N 7 8 1023.3 - 0.0 - Mostly clear 10 - - - -
31/10:30am 19.8 NW 5 8 1023.8 - 0.0 - Mostly clear 10 - - - -
31/10:00am 18.1 W 3 5 1024.1 - 0.0 - - 10 - - - -
31/09:30am 16.3 SSW 5 8 1024.6 - 0.0 - - 10 - - - -
31/09:00am 14.6 SSW 6 7 1024.4 R 0.0 Haze Mostly clear 25 - - - -
31/08:30am 13.2 SSW 7 9 1024.6 - 0.0 - - 10 - - - -
31/08:00am 11.8 SSW 8 9 1024.3 - 0.0 - - 10 - - - -
31/07:30am 10.8 SSW 6 7 1023.8 - 0.0 - - 10 - - - -
31/07:00am 10.0 S 5 6 1023.8 - 0.0 - Mostly clear 10 - - - -
31/06:30am 8.5 CALM 0 0 1023.2 - 0.0 Shallow fog Mostly clear 10 - - - -
31/06:12am 8.8 CALM 0 0 1022.8 - 0.0 Shallow fog Mostly clear 9 - - - -
31/06:00am 8.8 CALM 0 0 1022.8 F 0.0 Haze Mostly clear 15 - - - -
31/05:30am 9.8 WNW 6 6 1022.3 - 0.0 - Mostly clear 9 - - - -
31/05:04am 9.8 W 3 4 1022.2 - 0.0 Shallow fog Mostly clear 1 - - - -
31/05:00am 10.1 SW 1 4 1022.2 - 0.0 - Mostly clear 10 - - - -
31/04:30am 10.5 SSW 5 6 1022.3 - 0.0 - - 10 - - - -

Other Formats:

Comma delimited format used in spreadsheet applications
http://www.bom.gov.au/fwo/IDQ60701/IDQ60701.94578.axf

JavaScript Object Notation format (JSON) in row-major order
http://www.bom.gov.au/fwo/IDQ60701/IDQ60701.94578.json